createdAt,value
2023-04-02T00:01:26.642Z,53.22
2023-04-02T00:04:24.028Z,53.58
2023-04-02T00:07:16.564Z,53.58
2023-04-02T00:09:43.483Z,53.27
2023-04-02T00:12:19.151Z,53.86
2023-04-02T00:14:49.643Z,53.50
2023-04-02T00:17:16.626Z,53.15
2023-04-02T00:19:57.491Z,53.88
2023-04-02T00:22:34.185Z,53.34
2023-04-02T00:25:11.165Z,53.74
2023-04-02T00:27:38.045Z,53.78
2023-04-02T00:30:06.411Z,54.01
2023-04-02T00:32:36.327Z,53.97
2023-04-02T00:35:05.179Z,53.61
2023-04-02T00:37:38.947Z,53.82
2023-04-02T00:40:17.057Z,53.78
2023-04-02T00:42:44.796Z,53.87
2023-04-02T00:45:30.222Z,53.68
2023-04-02T00:48:16.376Z,53.67
2023-04-02T00:50:45.060Z,53.43
2023-04-02T00:53:26.186Z,53.31
2023-04-02T00:55:53.795Z,53.00
2023-04-02T00:58:33.252Z,53.10
2023-04-02T01:01:00.902Z,53.23
2023-04-02T01:03:36.525Z,53.55
2023-04-02T01:06:11.824Z,53.27
2023-04-02T01:09:12.167Z,53.13
2023-04-02T01:11:41.995Z,53.24
2023-04-02T01:14:58.958Z,53.54
2023-04-02T01:18:18.126Z,54.10
2023-04-02T01:21:09.407Z,54.01
2023-04-02T01:24:01.333Z,54.12
2023-04-02T01:27:08.221Z,54.63
2023-04-02T01:29:40.226Z,55.06
2023-04-02T01:32:15.555Z,54.60
2023-04-02T01:34:45.422Z,54.34
2023-04-02T01:37:56.780Z,54.37
2023-04-02T01:40:40.664Z,54.14
2023-04-02T01:43:17.131Z,54.09
2023-04-02T01:45:44.678Z,54.20
2023-04-02T01:48:22.584Z,53.79
2023-04-02T01:50:52.806Z,53.20
2023-04-02T01:53:23.590Z,53.17
2023-04-02T01:55:59.430Z,53.13
2023-04-02T01:58:32.376Z,53.18
2023-04-02T02:01:18.730Z,53.00
2023-04-02T02:03:46.876Z,53.19
2023-04-02T02:06:16.717Z,52.88
2023-04-02T02:08:56.954Z,53.53
2023-04-02T02:11:28.900Z,53.52
2023-04-02T02:14:00.858Z,53.40
2023-04-02T02:16:30.174Z,53.72
2023-04-02T02:19:01.977Z,53.66
2023-04-02T02:21:42.500Z,53.82
2023-04-02T02:24:27.141Z,53.78
2023-04-02T02:27:22.922Z,53.85
2023-04-02T02:30:03.341Z,53.75
2023-04-02T02:32:33.231Z,53.35
2023-04-02T02:35:44.762Z,53.36
2023-04-02T02:38:34.373Z,52.99
2023-04-02T02:41:21.622Z,52.80
2023-04-02T02:44:11.234Z,53.30
2023-04-02T02:46:49.733Z,53.30
2023-04-02T02:49:22.323Z,53.10
2023-04-02T02:52:17.453Z,53.39
2023-04-02T02:55:06.058Z,53.05
2023-04-02T02:57:57.300Z,53.20
2023-04-02T03:00:28.330Z,53.38
2023-04-02T03:02:58.580Z,53.14
2023-04-02T03:05:30.413Z,53.34
2023-04-02T03:08:06.603Z,53.40
2023-04-02T03:10:50.977Z,53.03
2023-04-02T03:13:24.568Z,52.90
2023-04-02T03:16:20.716Z,52.66
2023-04-02T03:18:55.911Z,52.71
2023-04-02T03:21:51.767Z,51.90
2023-04-02T03:24:43.505Z,52.50
2023-04-02T03:27:26.571Z,52.27
2023-04-02T03:30:21.805Z,52.42
2023-04-02T03:32:52.545Z,52.50
2023-04-02T03:35:34.147Z,52.12
2023-04-02T03:38:16.975Z,52.44
2023-04-02T03:41:04.972Z,52.09
2023-04-02T03:43:44.166Z,52.32
2023-04-02T03:46:41.752Z,52.13
2023-04-02T03:49:20.479Z,51.79
2023-04-02T03:52:11.686Z,51.92
2023-04-02T03:54:40.903Z,51.85
2023-04-02T03:57:42.020Z,52.01
2023-04-02T04:00:57.064Z,51.87
2023-04-02T04:03:39.543Z,52.31
2023-04-02T04:06:21.523Z,51.79
2023-04-02T04:09:32.267Z,52.32
2023-04-02T04:12:35.221Z,51.76
2023-04-02T04:15:14.510Z,51.79
2023-04-02T04:18:34.813Z,51.59
2023-04-02T04:21:16.367Z,51.54
2023-04-02T04:23:50.982Z,51.87
2023-04-02T04:26:31.081Z,51.87
2023-04-02T04:29:19.531Z,51.56
2023-04-02T04:31:55.579Z,51.19
2023-04-02T04:34:39.051Z,51.54
2023-04-02T04:37:07.920Z,51.33
2023-04-02T04:40:23.203Z,51.70
2023-04-02T04:43:00.009Z,51.48
2023-04-02T04:45:55.842Z,51.44
2023-04-02T04:48:36.330Z,51.45
2023-04-02T04:51:40.372Z,51.76
2023-04-02T04:54:15.142Z,51.62
2023-04-02T04:56:53.406Z,51.84
2023-04-02T04:59:25.435Z,51.15
2023-04-02T05:02:00.592Z,51.15
2023-04-02T05:04:51.963Z,51.38
2023-04-02T05:07:29.577Z,51.16
2023-04-02T05:10:27.404Z,50.72
2023-04-02T05:13:18.910Z,50.84
2023-04-02T05:16:23.553Z,50.81
2023-04-02T05:19:16.518Z,51.21
2023-04-02T05:22:12.893Z,51.16
2023-04-02T05:25:11.894Z,51.08
2023-04-02T05:28:18.248Z,51.25
2023-04-02T05:31:03.241Z,51.30
2023-04-02T05:33:35.325Z,51.24
2023-04-02T05:36:08.461Z,51.58
2023-04-02T05:38:46.623Z,51.99
2023-04-02T05:41:23.898Z,51.82
2023-04-02T05:44:08.710Z,51.79
2023-04-02T05:46:46.076Z,51.63
2023-04-02T05:49:39.217Z,51.62
2023-04-02T05:52:16.655Z,51.38
2023-04-02T05:54:52.512Z,50.81
2023-04-02T05:57:35.829Z,50.31
2023-04-02T06:00:21.671Z,50.48
2023-04-02T06:03:02.459Z,50.96
2023-04-02T06:05:37.008Z,49.93
2023-04-02T06:08:15.298Z,48.91
2023-04-02T06:11:13.553Z,48.36
2023-04-02T06:13:41.883Z,48.05
2023-04-02T06:16:15.947Z,48.29
2023-04-02T06:18:43.659Z,48.42
2023-04-02T06:21:15.389Z,47.85
2023-04-02T06:24:06.707Z,48.41
2023-04-02T06:26:44.451Z,48.25
2023-04-02T06:29:39.421Z,48.13
2023-04-02T06:32:11.485Z,48.51
2023-04-02T06:34:42.651Z,48.75
2023-04-02T06:37:32.457Z,48.70
2023-04-02T06:40:33.627Z,49.00
2023-04-02T06:43:33.616Z,49.00
2023-04-02T06:46:30.075Z,49.22
2023-04-02T06:49:31.352Z,48.97
2023-04-02T06:52:05.048Z,48.79
2023-04-02T06:54:32.530Z,48.49
2023-04-02T06:57:07.340Z,48.61
2023-04-02T06:59:38.055Z,48.65
2023-04-02T07:02:34.509Z,48.46
2023-04-02T07:05:09.027Z,48.40
2023-04-02T07:07:38.964Z,48.59
2023-04-02T07:10:09.378Z,48.69
2023-04-02T07:12:36.528Z,48.53
2023-04-02T07:15:03.872Z,48.09
2023-04-02T07:17:30.983Z,48.10
2023-04-02T07:19:57.933Z,47.64
2023-04-02T07:22:26.795Z,47.79
2023-04-02T07:24:58.693Z,48.23
2023-04-02T07:27:26.186Z,48.03
2023-04-02T07:29:53.044Z,48.08
2023-04-02T07:32:19.916Z,47.90
2023-04-02T07:34:47.183Z,47.42
2023-04-02T07:37:14.673Z,46.57
2023-04-02T07:39:41.775Z,46.17
2023-04-02T07:42:08.777Z,46.40
2023-04-02T07:44:35.755Z,46.84
2023-04-02T07:47:02.805Z,47.33
2023-04-02T07:49:29.721Z,48.00
2023-04-02T07:51:56.760Z,48.47
2023-04-02T07:54:23.633Z,48.85
2023-04-02T07:56:50.825Z,49.05
2023-04-02T07:59:17.755Z,49.35
2023-04-02T08:01:44.705Z,49.24
2023-04-02T08:04:21.884Z,49.20
2023-04-02T08:06:50.368Z,48.72
2023-04-02T08:09:18.517Z,48.32
2023-04-02T08:11:46.452Z,48.38
2023-04-02T08:14:13.636Z,48.18
2023-04-02T08:16:55.751Z,47.77
2023-04-02T08:19:23.343Z,47.51
2023-04-02T08:21:51.973Z,46.46
2023-04-02T08:24:19.697Z,47.19
2023-04-02T08:26:48.197Z,47.84
2023-04-02T08:29:15.821Z,45.85
2023-04-02T08:31:42.711Z,45.80
2023-04-02T08:34:10.134Z,46.01
2023-04-02T08:36:40.027Z,45.87
2023-04-02T08:39:13.398Z,46.09
2023-04-02T08:42:21.304Z,46.88
2023-04-02T08:45:32.245Z,45.49
2023-04-02T08:48:01.463Z,46.44
2023-04-02T08:50:35.883Z,47.07
2023-04-02T08:53:07.192Z,47.47
2023-04-02T08:56:05.743Z,47.42
2023-04-02T08:58:41.815Z,47.53
2023-04-02T09:01:37.806Z,47.25
2023-04-02T09:04:14.462Z,46.92
2023-04-02T09:06:43.858Z,46.29
2023-04-02T09:09:13.298Z,46.29
2023-04-02T09:12:02.851Z,46.82
2023-04-02T09:14:33.460Z,46.13
2023-04-02T09:17:04.186Z,45.23
2023-04-02T09:19:40.342Z,44.81
2023-04-02T09:22:21.981Z,45.30
2023-04-02T09:25:04.908Z,45.42
2023-04-02T09:27:36.337Z,45.85
2023-04-02T09:30:43.443Z,46.32
2023-04-02T09:33:10.958Z,47.46
2023-04-02T09:35:49.810Z,47.85
2023-04-02T09:38:32.662Z,47.54
2023-04-02T09:41:07.501Z,47.33
2023-04-02T09:43:38.051Z,46.66
2023-04-02T09:46:18.815Z,46.35
2023-04-02T09:48:53.156Z,45.59
2023-04-02T09:51:26.482Z,45.71
2023-04-02T09:54:02.510Z,45.76
2023-04-02T09:56:37.396Z,46.15
2023-04-02T09:59:15.334Z,47.26
2023-04-02T10:02:06.816Z,47.27
2023-04-02T10:04:47.970Z,47.11
2023-04-02T10:07:44.774Z,47.48
2023-04-02T10:10:44.959Z,48.24
2023-04-02T10:14:03.254Z,47.97
2023-04-02T10:16:43.544Z,47.97
2023-04-02T10:19:28.151Z,47.14
2023-04-02T10:21:56.586Z,46.29
2023-04-02T10:24:27.590Z,45.67
2023-04-02T10:27:22.886Z,45.83
2023-04-02T10:30:15.423Z,45.58
2023-04-02T10:33:05.526Z,45.09
2023-04-02T10:36:00.254Z,44.75
2023-04-02T10:39:02.502Z,45.43
2023-04-02T10:41:47.143Z,45.45
2023-04-02T10:44:28.485Z,45.77
2023-04-02T10:47:26.686Z,46.32
2023-04-02T10:50:13.205Z,46.63
2023-04-02T10:52:48.435Z,46.33
2023-04-02T10:55:25.426Z,45.25
2023-04-02T10:57:57.349Z,45.10
2023-04-02T11:00:36.197Z,45.06
2023-04-02T11:03:19.189Z,45.30
2023-04-02T11:05:50.848Z,45.06
2023-04-02T11:08:27.489Z,45.05
2023-04-02T11:11:16.515Z,45.00
2023-04-02T11:14:10.974Z,45.30
2023-04-02T11:16:41.786Z,44.58
2023-04-02T11:19:17.026Z,43.23
2023-04-02T11:21:59.581Z,43.69
2023-04-02T11:24:31.501Z,44.21
2023-04-02T11:27:11.642Z,43.65
2023-04-02T11:29:52.477Z,43.56
2023-04-02T11:32:23.919Z,43.65
2023-04-02T11:35:06.407Z,43.39
2023-04-02T11:37:44.700Z,43.44
2023-04-02T11:40:12.137Z,43.47
2023-04-02T11:42:41.795Z,43.40
2023-04-02T11:45:23.562Z,44.00
2023-04-02T11:48:05.589Z,44.44
2023-04-02T11:50:48.518Z,43.58
2023-04-02T11:53:15.340Z,43.95
2023-04-02T11:55:45.472Z,43.83
2023-04-02T11:58:46.295Z,44.14
2023-04-02T12:01:53.607Z,44.46
2023-04-02T12:04:37.659Z,43.68
2023-04-02T12:07:52.247Z,43.68
2023-04-02T12:10:28.769Z,44.04
2023-04-02T12:12:55.737Z,43.63
2023-04-02T12:15:44.374Z,44.07
2023-04-02T12:18:24.139Z,43.27
2023-04-02T12:20:56.502Z,43.94
2023-04-02T12:23:31.318Z,43.96
2023-04-02T12:26:26.539Z,44.46
2023-04-02T12:28:53.417Z,44.14
2023-04-02T12:31:25.113Z,44.40
2023-04-02T12:33:53.076Z,44.24
2023-04-02T12:36:22.921Z,44.32
2023-04-02T12:38:57.397Z,43.72
2023-04-02T12:41:35.769Z,43.42
2023-04-02T12:44:15.470Z,43.04
2023-04-02T12:46:44.011Z,43.02
2023-04-02T12:49:34.859Z,42.57
2023-04-02T12:52:13.006Z,41.98
2023-04-02T12:54:54.090Z,42.15
2023-04-02T12:57:29.622Z,42.32
2023-04-02T13:00:20.116Z,43.22
2023-04-02T13:03:21.542Z,43.26
2023-04-02T13:05:54.495Z,42.97
2023-04-02T13:08:33.074Z,42.89
2023-04-02T13:11:01.915Z,43.09
2023-04-02T13:13:34.994Z,43.07
2023-04-02T13:16:25.153Z,42.38
2023-04-02T13:18:52.120Z,41.97
2023-04-02T13:21:30.116Z,42.04
2023-04-02T13:23:57.039Z,42.18
2023-04-02T13:26:27.138Z,41.93
2023-04-02T13:29:20.572Z,42.13
2023-04-02T13:31:47.995Z,42.41
2023-04-02T13:34:14.948Z,42.30
2023-04-02T13:36:41.827Z,41.83
2023-04-02T13:39:08.781Z,41.73
2023-04-02T13:41:51.762Z,42.00
2023-04-02T13:44:34.010Z,42.80
2023-04-02T13:47:01.455Z,42.32
2023-04-02T13:49:29.309Z,42.47
2023-04-02T13:52:03.660Z,42.95
2023-04-02T13:54:51.634Z,43.38
2023-04-02T13:57:18.709Z,43.21
2023-04-02T13:59:45.651Z,42.99
2023-04-02T14:02:23.589Z,43.45
2023-04-02T14:05:28.691Z,43.79
2023-04-02T14:08:09.802Z,43.98
2023-04-02T14:11:03.137Z,44.23
2023-04-02T14:13:47.031Z,44.46
2023-04-02T14:16:27.884Z,44.25
2023-04-02T14:19:03.470Z,43.94
2023-04-02T14:21:58.280Z,44.10
2023-04-02T14:25:06.202Z,43.92
2023-04-02T14:28:06.535Z,43.79
2023-04-02T14:30:54.784Z,42.39
2023-04-02T14:34:13.950Z,43.21
2023-04-02T14:37:07.356Z,43.53
2023-04-02T14:39:51.195Z,43.92
2023-04-02T14:42:35.671Z,43.84
2023-04-02T14:45:12.768Z,43.56
2023-04-02T14:47:46.419Z,43.69
2023-04-02T14:50:19.885Z,43.48
2023-04-02T14:52:52.499Z,41.94
2023-04-02T14:55:38.017Z,41.92
2023-04-02T14:58:26.531Z,41.89
2023-04-02T15:01:15.326Z,41.98
2023-04-02T15:04:15.424Z,41.75
2023-04-02T15:06:48.452Z,41.38
2023-04-02T15:09:45.547Z,41.73
2023-04-02T15:12:26.433Z,42.08
2023-04-02T15:15:07.907Z,42.00
2023-04-02T15:17:36.103Z,42.35
2023-04-02T15:20:15.948Z,41.55
2023-04-02T15:23:11.602Z,41.87
2023-04-02T15:26:08.023Z,41.81
2023-04-02T15:28:57.325Z,41.98
2023-04-02T15:31:27.862Z,41.87
2023-04-02T15:34:20.768Z,42.27
2023-04-02T15:36:55.826Z,42.61
2023-04-02T15:39:39.103Z,42.26
2023-04-02T15:42:18.014Z,42.69
2023-04-02T15:44:58.681Z,43.17
2023-04-02T15:47:49.752Z,43.42
2023-04-02T15:51:11.561Z,43.60
2023-04-02T15:54:12.145Z,43.92
2023-04-02T15:57:21.011Z,44.21
2023-04-02T16:00:19.616Z,43.88
2023-04-02T16:03:18.915Z,42.90
2023-04-02T16:06:27.909Z,43.09
2023-04-02T16:09:08.018Z,43.55
2023-04-02T16:11:36.412Z,43.28
2023-04-02T16:14:22.610Z,44.09
2023-04-02T16:16:52.580Z,44.46
2023-04-02T16:19:56.655Z,44.65
2023-04-02T16:22:30.405Z,44.38
2023-04-02T16:25:20.599Z,43.91
2023-04-02T16:28:00.583Z,44.05
2023-04-02T16:30:41.205Z,44.41
2023-04-02T16:33:34.742Z,44.47
2023-04-02T16:36:53.966Z,45.15
2023-04-02T16:39:47.022Z,45.07
2023-04-02T16:42:32.109Z,44.77
2023-04-02T16:45:13.332Z,45.06
2023-04-02T16:48:17.617Z,45.33
2023-04-02T16:51:24.599Z,45.64
2023-04-02T16:54:19.398Z,46.01
2023-04-02T16:57:20.457Z,46.30
2023-04-02T17:00:04.195Z,46.55
2023-04-02T17:02:47.171Z,46.63
2023-04-02T17:05:58.550Z,46.45
2023-04-02T17:08:30.591Z,46.34
2023-04-02T17:11:06.358Z,46.31
2023-04-02T17:13:47.310Z,45.91
2023-04-02T17:16:34.646Z,46.09
2023-04-02T17:19:01.923Z,46.11
2023-04-02T17:21:31.124Z,46.06
2023-04-02T17:24:11.094Z,46.13
2023-04-02T17:26:38.452Z,46.54
2023-04-02T17:29:15.799Z,46.31
2023-04-02T17:31:44.082Z,47.25
2023-04-02T17:34:16.797Z,47.65
2023-04-02T17:36:57.457Z,47.50
2023-04-02T17:39:47.040Z,47.77
2023-04-02T17:42:29.642Z,48.21
2023-04-02T17:45:22.406Z,48.35
2023-04-02T17:47:59.609Z,48.65
2023-04-02T17:50:56.120Z,49.13
2023-04-02T17:53:43.298Z,49.03
2023-04-02T17:56:55.036Z,49.48
2023-04-02T17:59:52.501Z,49.94
2023-04-02T18:02:42.446Z,50.25
2023-04-02T18:05:17.381Z,50.04
2023-04-02T18:08:25.939Z,49.96
2023-04-02T18:11:10.747Z,50.51
2023-04-02T18:14:27.604Z,50.36
2023-04-02T18:17:25.882Z,50.56
2023-04-02T18:20:16.681Z,50.48
2023-04-02T18:22:55.301Z,50.81
2023-04-02T18:26:21.203Z,50.50
2023-04-02T18:29:22.896Z,50.30
2023-04-02T18:32:18.491Z,50.91
2023-04-02T18:35:25.996Z,50.56
2023-04-02T18:38:11.548Z,50.76
2023-04-02T18:41:03.029Z,51.15
2023-04-02T18:44:01.106Z,51.10
2023-04-02T18:46:39.923Z,51.16
2023-04-02T18:49:39.024Z,51.25
2023-04-02T18:52:15.624Z,51.23
2023-04-02T18:54:52.952Z,51.08
2023-04-02T18:57:29.563Z,51.49
2023-04-02T19:00:18.147Z,51.31
2023-04-02T19:03:12.898Z,51.34
2023-04-02T19:05:44.801Z,51.71
2023-04-02T19:08:19.717Z,51.11
2023-04-02T19:10:51.909Z,51.30
2023-04-02T19:13:20.398Z,51.03
2023-04-02T19:16:15.439Z,51.47
2023-04-02T19:19:19.643Z,51.40
2023-04-02T19:22:08.634Z,51.04
2023-04-02T19:25:21.712Z,51.34
2023-04-02T19:28:29.069Z,50.56
2023-04-02T19:31:23.094Z,50.56
2023-04-02T19:34:09.191Z,50.22
2023-04-02T19:36:45.365Z,50.53
2023-04-02T19:39:41.902Z,50.39
2023-04-02T19:42:41.516Z,50.19
2023-04-02T19:45:36.572Z,49.75
2023-04-02T19:48:21.727Z,49.75
2023-04-02T19:50:49.303Z,50.07
2023-04-02T19:53:17.165Z,49.59
2023-04-02T19:55:44.849Z,49.89
2023-04-02T19:58:30.939Z,49.86
2023-04-02T20:00:58.292Z,49.96
2023-04-02T20:03:25.276Z,49.77
2023-04-02T20:05:52.778Z,50.07
2023-04-02T20:08:19.954Z,50.21
2023-04-02T20:10:47.756Z,50.32
2023-04-02T20:13:14.743Z,50.07
2023-04-02T20:15:41.768Z,50.46
2023-04-02T20:18:10.425Z,50.58
2023-04-02T20:20:39.216Z,49.93
2023-04-02T20:23:06.513Z,50.72
2023-04-02T20:25:33.407Z,50.79
2023-04-02T20:28:01.089Z,50.39
2023-04-02T20:30:28.027Z,51.11
2023-04-02T20:32:55.643Z,51.27
2023-04-02T20:35:22.683Z,51.26
2023-04-02T20:37:49.778Z,51.91
2023-04-02T20:40:16.772Z,51.91
2023-04-02T20:42:43.665Z,51.95
2023-04-02T20:45:11.004Z,52.43
2023-04-02T20:47:38.391Z,52.48
2023-04-02T20:50:06.127Z,52.23
2023-04-02T20:52:33.923Z,52.38
2023-04-02T20:55:01.660Z,53.08
2023-04-02T20:57:31.534Z,53.32
2023-04-02T20:59:59.011Z,53.51
2023-04-02T21:02:26.141Z,53.51
2023-04-02T21:04:53.103Z,53.91
2023-04-02T21:07:20.070Z,53.21
2023-04-02T21:09:46.937Z,53.68
2023-04-02T21:12:14.177Z,53.31
2023-04-02T21:14:41.068Z,53.84
2023-04-02T21:17:08.054Z,53.91
2023-04-02T21:19:35.659Z,53.92
2023-04-02T21:22:03.358Z,53.38
2023-04-02T21:24:30.360Z,53.75
2023-04-02T21:26:57.236Z,53.45
2023-04-02T21:29:24.101Z,53.57
2023-04-02T21:31:51.029Z,53.88
2023-04-02T21:34:18.029Z,53.79
2023-04-02T21:36:47.513Z,53.43
2023-04-02T21:39:24.430Z,54.03
2023-04-02T21:41:53.201Z,53.74
2023-04-02T21:44:22.103Z,53.61
2023-04-02T21:46:51.885Z,53.82
2023-04-02T21:49:26.113Z,53.87
2023-04-02T21:51:53.151Z,53.49
2023-04-02T21:54:20.489Z,53.49
2023-04-02T21:56:47.861Z,53.96
2023-04-02T21:59:16.945Z,53.69
2023-04-02T22:01:48.203Z,53.71
2023-04-02T22:04:21.686Z,53.75
2023-04-02T22:06:49.748Z,54.14
2023-04-02T22:09:23.125Z,53.96
2023-04-02T22:11:59.044Z,54.11
2023-04-02T22:14:27.312Z,54.04
2023-04-02T22:16:54.424Z,54.40
2023-04-02T22:19:21.660Z,54.07
2023-04-02T22:21:48.539Z,54.43
2023-04-02T22:24:18.810Z,54.57
2023-04-02T22:26:46.088Z,54.87
2023-04-02T22:29:13.153Z,54.44
2023-04-02T22:31:40.435Z,54.31
2023-04-02T22:34:07.675Z,54.22
2023-04-02T22:36:35.887Z,53.87
2023-04-02T22:39:05.646Z,54.32
2023-04-02T22:41:33.096Z,54.27
2023-04-02T22:44:01.877Z,54.10
2023-04-02T22:46:30.188Z,53.54
2023-04-02T22:48:57.467Z,53.48
2023-04-02T22:51:25.941Z,53.59
2023-04-02T22:53:54.823Z,53.86
2023-04-02T22:56:26.661Z,53.79
2023-04-02T22:58:53.612Z,53.80
2023-04-02T23:01:28.473Z,53.28
2023-04-02T23:03:56.013Z,53.69
2023-04-02T23:06:23.913Z,53.61
2023-04-02T23:08:51.671Z,53.20
2023-04-02T23:11:24.631Z,52.92
2023-04-02T23:13:54.672Z,52.24
2023-04-02T23:16:22.807Z,52.97
2023-04-02T23:18:50.132Z,52.22
2023-04-02T23:21:18.412Z,52.38
2023-04-02T23:23:46.303Z,52.64
2023-04-02T23:26:21.953Z,52.59
2023-04-02T23:28:50.133Z,52.24
2023-04-02T23:31:21.270Z,52.15
2023-04-02T23:33:49.106Z,52.09
2023-04-02T23:36:32.486Z,52.63
2023-04-02T23:39:12.374Z,52.83
2023-04-02T23:41:41.631Z,52.66
2023-04-02T23:44:09.839Z,52.21
2023-04-02T23:46:36.800Z,52.49
2023-04-02T23:49:04.262Z,52.50
2023-04-02T23:51:32.265Z,52.38
2023-04-02T23:53:59.569Z,52.41
2023-04-02T23:56:27.013Z,52.81
2023-04-02T23:58:54.010Z,53.61
